createdAt,value
2018-12-09T00:03:34.027Z,1.00
2018-12-09T00:11:55.267Z,1.30
2018-12-09T00:20:16.507Z,0.90
2018-12-09T00:28:37.659Z,1.47
2018-12-09T00:36:58.825Z,6.83
2018-12-09T00:45:19.997Z,1.50
2018-12-09T00:53:41.218Z,1.67
2018-12-09T01:02:06.934Z,0.70
2018-12-09T01:10:28.091Z,0.68
2018-12-09T01:18:49.292Z,0.83
2018-12-09T01:27:10.343Z,1.40
2018-12-09T01:35:31.492Z,0.90
2018-12-09T01:43:52.663Z,1.30
2018-12-09T01:52:13.819Z,0.90
2018-12-09T02:00:34.976Z,0.70
2018-12-09T02:08:56.139Z,0.67
2018-12-09T02:17:17.295Z,0.70
2018-12-09T02:25:38.560Z,1.00
2018-12-09T02:33:59.708Z,1.07
2018-12-09T02:42:20.893Z,1.57
2018-12-09T02:50:42.062Z,5.43
2018-12-09T02:59:03.211Z,2.97
2018-12-09T03:07:24.380Z,5.10
2018-12-09T03:15:45.527Z,3.77
2018-12-09T03:24:06.676Z,3.57
2018-12-09T03:32:27.824Z,3.73
2018-12-09T03:40:49.083Z,1.63
2018-12-09T03:49:10.232Z,3.10
2018-12-09T03:57:31.491Z,1.20
2018-12-09T04:05:52.643Z,1.13
2018-12-09T04:14:13.837Z,3.60
2018-12-09T04:22:35.063Z,1.23
2018-12-09T04:30:56.216Z,3.83
2018-12-09T04:39:17.371Z,4.93
2018-12-09T04:47:38.522Z,4.27
2018-12-09T04:55:59.670Z,5.53
2018-12-09T05:04:20.939Z,4.80
2018-12-09T05:12:42.107Z,6.73
2018-12-09T05:21:03.667Z,3.00
2018-12-09T05:29:24.810Z,5.80
2018-12-09T05:37:45.968Z,3.20
2018-12-09T05:46:08.485Z,3.30
2018-12-09T05:54:29.888Z,4.33
2018-12-09T06:02:51.035Z,4.87
2018-12-09T06:11:12.195Z,2.63
2018-12-09T06:19:33.383Z,3.87
2018-12-09T06:27:54.546Z,3.20
2018-12-09T06:36:15.711Z,2.57
2018-12-09T06:44:36.859Z,3.73
2018-12-09T06:52:58.307Z,6.33
2018-12-09T07:01:19.460Z,6.07
2018-12-09T07:09:40.601Z,5.40
2018-12-09T07:18:01.748Z,7.77
2018-12-09T07:26:22.899Z,7.17
2018-12-09T07:34:44.047Z,6.97
2018-12-09T07:43:05.340Z,4.03
2018-12-09T07:51:26.914Z,4.07
2018-12-09T07:59:48.064Z,4.60
2018-12-09T08:08:09.223Z,4.23
2018-12-09T08:16:30.475Z,5.67
2018-12-09T08:24:51.628Z,5.83
2018-12-09T08:33:12.779Z,11.93
2018-12-09T08:41:33.839Z,7.93
2018-12-09T08:49:55.099Z,5.63
2018-12-09T08:58:16.255Z,9.07
2018-12-09T09:06:37.412Z,6.87
2018-12-09T09:14:58.559Z,6.70
2018-12-09T09:23:19.781Z,8.77
2018-12-09T09:31:41.007Z,9.80
2018-12-09T09:40:02.181Z,8.77
2018-12-09T09:48:23.443Z,11.33
2018-12-09T09:56:44.603Z,9.03
2018-12-09T10:05:05.852Z,10.93
2018-12-09T10:13:27.091Z,12.00
2018-12-09T10:21:48.356Z,8.43
2018-12-09T10:30:09.599Z,14.07
2018-12-09T10:38:30.847Z,11.77
2018-12-09T10:46:51.987Z,11.43
2018-12-09T10:55:13.145Z,12.73
2018-12-09T11:03:34.403Z,10.80
2018-12-09T11:11:55.551Z,12.93
2018-12-09T11:20:16.703Z,9.77
2018-12-09T11:28:37.864Z,7.07
2018-12-09T11:36:59.103Z,7.40
2018-12-09T11:45:20.371Z,10.13
2018-12-09T11:53:41.604Z,11.80
2018-12-09T12:02:02.992Z,6.93
2018-12-09T12:10:24.260Z,6.20
2018-12-09T12:18:45.484Z,11.33
2018-12-09T12:27:06.631Z,8.93
2018-12-09T12:35:27.891Z,10.67
2018-12-09T12:43:49.049Z,9.63
2018-12-09T12:52:10.332Z,8.57
2018-12-09T13:00:31.532Z,7.37
2018-12-09T13:08:52.702Z,8.47
2018-12-09T13:17:13.955Z,9.90
2018-12-09T13:25:35.145Z,10.07
2018-12-09T13:33:56.371Z,7.60
2018-12-09T13:42:18.191Z,7.37
2018-12-09T13:50:39.507Z,6.70
2018-12-09T13:59:00.750Z,4.77
2018-12-09T14:07:22.980Z,3.13
2018-12-09T14:15:44.301Z,4.97
2018-12-09T14:24:05.485Z,4.33
2018-12-09T14:32:26.659Z,3.80
2018-12-09T14:40:47.920Z,7.00
2018-12-09T14:49:09.117Z,5.60
2018-12-09T14:57:30.272Z,3.93
2018-12-09T15:05:51.428Z,3.17
2018-12-09T15:14:12.737Z,3.87
2018-12-09T15:22:33.879Z,4.30
2018-12-09T15:30:55.034Z,3.87
2018-12-09T15:39:16.204Z,7.73
2018-12-09T15:47:37.452Z,5.03
2018-12-09T15:55:58.612Z,3.33
2018-12-09T16:04:19.763Z,5.63
2018-12-09T16:12:40.904Z,4.47
2018-12-09T16:21:02.141Z,5.07
2018-12-09T16:29:23.319Z,4.63
2018-12-09T16:37:44.467Z,6.50
2018-12-09T16:46:05.628Z,5.10
2018-12-09T16:54:26.771Z,4.23
2018-12-09T17:02:47.915Z,5.00
2018-12-09T17:11:09.065Z,4.27
2018-12-09T17:19:30.221Z,4.87
2018-12-09T17:27:51.364Z,4.47
2018-12-09T17:36:12.507Z,5.53
2018-12-09T17:44:33.658Z,5.23
2018-12-09T17:52:54.812Z,3.33
2018-12-09T18:01:17.471Z,4.57
2018-12-09T18:09:38.632Z,3.63
2018-12-09T18:17:59.847Z,3.90
2018-12-09T18:26:21.007Z,3.23
2018-12-09T18:34:42.247Z,4.70
2018-12-09T18:43:03.391Z,5.23
2018-12-09T18:51:24.531Z,5.90
2018-12-09T18:59:45.864Z,5.50
2018-12-09T19:08:07.001Z,4.40
2018-12-09T19:16:28.219Z,6.17
2018-12-09T19:24:49.365Z,5.47
2018-12-09T19:33:10.559Z,4.60
2018-12-09T19:41:31.767Z,3.73
2018-12-09T19:49:52.911Z,4.13
2018-12-09T19:58:14.071Z,5.10
2018-12-09T20:06:35.319Z,3.67
2018-12-09T20:14:56.472Z,6.40
2018-12-09T20:23:17.635Z,6.47
2018-12-09T20:31:38.782Z,4.03
2018-12-09T20:40:00.022Z,4.17
2018-12-09T20:48:21.199Z,4.03
2018-12-09T20:56:42.545Z,3.60
2018-12-09T21:05:03.724Z,3.73
2018-12-09T21:13:24.872Z,3.50
2018-12-09T21:21:46.020Z,4.30
2018-12-09T21:30:07.173Z,5.13
2018-12-09T21:38:28.363Z,4.93
2018-12-09T21:46:49.547Z,6.43
2018-12-09T21:55:10.699Z,4.83
2018-12-09T22:03:31.840Z,5.50
2018-12-09T22:11:52.991Z,5.23
2018-12-09T22:20:14.151Z,7.07
2018-12-09T22:28:35.295Z,8.80
2018-12-09T22:36:56.536Z,4.10
2018-12-09T22:45:17.744Z,4.50
2018-12-09T22:53:38.976Z,5.50
2018-12-09T23:02:05.907Z,6.53
2018-12-09T23:10:27.119Z,8.03
